createdAt,value
2022-08-25T00:00:06.648Z,101072.66
2022-08-25T00:00:29.446Z,101080.84
2022-08-25T00:00:51.097Z,101079.69
2022-08-25T00:01:14.849Z,101079.69
2022-08-25T00:01:39.078Z,101084.28
2022-08-25T00:02:05.475Z,101074.94
2022-08-25T00:02:27.638Z,101067.03
2022-08-25T00:02:55.575Z,101073.22
2022-08-25T00:03:18.448Z,101086.00
2022-08-25T00:03:42.041Z,101078.81
2022-08-25T00:04:08.831Z,101077.09
2022-08-25T00:04:30.861Z,101082.56
2022-08-25T00:04:53.808Z,101077.97
2022-08-25T00:05:15.762Z,101071.81
2022-08-25T00:05:39.962Z,101071.97
2022-08-25T00:06:04.396Z,101081.03
2022-08-25T00:06:26.727Z,101067.09
2022-08-25T00:06:49.924Z,101074.91
2022-08-25T00:07:12.169Z,101077.50
2022-08-25T00:07:40.298Z,101073.75
2022-08-25T00:08:03.589Z,101073.75
2022-08-25T00:08:25.447Z,101079.22
2022-08-25T00:08:48.864Z,101075.44
2022-08-25T00:09:13.129Z,101072.91
2022-08-25T00:09:35.656Z,101076.16
2022-08-25T00:09:58.489Z,101081.63
2022-08-25T00:10:20.440Z,101076.63
2022-08-25T00:10:42.402Z,101078.81
2022-08-25T00:11:05.434Z,101071.16
2022-08-25T00:11:32.506Z,101077.50
2022-08-25T00:11:55.106Z,101079.22
2022-08-25T00:12:16.919Z,101079.22
2022-08-25T00:12:38.731Z,101080.22
2022-08-25T00:13:02.410Z,101073.75
2022-08-25T00:13:24.158Z,101080.22
2022-08-25T00:13:50.718Z,101078.19
2022-08-25T00:14:16.372Z,101078.19
2022-08-25T00:14:39.453Z,101078.03
2022-08-25T00:15:02.563Z,101078.03
2022-08-25T00:15:24.843Z,101078.81
2022-08-25T00:15:47.121Z,101074.91
2022-08-25T00:16:08.887Z,101078.66
2022-08-25T00:16:32.432Z,101077.78
2022-08-25T00:16:56.138Z,101082.41
2022-08-25T00:17:17.976Z,101077.78
2022-08-25T00:17:40.671Z,101082.94
2022-08-25T00:18:02.782Z,101076.09
2022-08-25T00:18:25.050Z,101078.50
2022-08-25T00:18:49.936Z,101081.78
2022-08-25T00:19:15.389Z,101073.75
2022-08-25T00:19:37.870Z,101079.22
2022-08-25T00:19:59.685Z,101080.91
2022-08-25T00:20:22.408Z,101075.78
2022-08-25T00:20:47.155Z,101077.50
2022-08-25T00:21:11.149Z,101076.50
2022-08-25T00:21:33.161Z,101079.22
2022-08-25T00:21:57.149Z,101078.34
2022-08-25T00:22:18.857Z,101081.94
2022-08-25T00:22:41.316Z,101082.78
2022-08-25T00:23:03.028Z,101079.50
2022-08-25T00:23:27.446Z,101078.66
2022-08-25T00:23:49.591Z,101086.69
2022-08-25T00:24:16.550Z,101083.09
2022-08-25T00:24:42.632Z,101076.94
2022-08-25T00:25:05.003Z,101079.69
2022-08-25T00:25:26.962Z,101074.38
2022-08-25T00:25:49.022Z,101086.16
2022-08-25T00:26:12.514Z,101076.22
2022-08-25T00:26:34.484Z,101075.03
2022-08-25T00:26:57.682Z,101072.63
2022-08-25T00:27:19.416Z,101075.38
2022-08-25T00:27:43.634Z,101079.97
2022-08-25T00:28:08.619Z,101077.25
2022-08-25T00:28:31.067Z,101077.38
2022-08-25T00:28:54.175Z,101076.69
2022-08-25T00:29:26.695Z,101076.97
2022-08-25T00:29:48.529Z,101076.28
2022-08-25T00:30:14.594Z,101074.88
2022-08-25T00:30:38.863Z,101076.88
2022-08-25T00:31:01.836Z,101078.31
2022-08-25T00:31:24.488Z,101077.63
2022-08-25T00:31:59.799Z,101079.31
2022-08-25T00:32:24.445Z,101076.78
2022-08-25T00:32:51.465Z,101067.72
2022-08-25T00:33:17.663Z,101077.63
2022-08-25T00:33:39.377Z,101081.22
2022-08-25T00:34:01.229Z,101074.03
2022-08-25T00:34:26.502Z,101081.91
2022-08-25T00:34:48.170Z,101079.19
2022-08-25T00:35:09.857Z,101079.19
2022-08-25T00:35:31.501Z,101073.88
2022-08-25T00:35:56.347Z,101075.59
2022-08-25T00:36:19.582Z,101083.78
2022-08-25T00:36:42.083Z,101068.88
2022-08-25T00:37:07.088Z,101069.91
2022-08-25T00:37:29.797Z,101075.03
2022-08-25T00:37:51.506Z,101076.19
2022-08-25T00:38:13.431Z,101081.66
2022-08-25T00:38:35.270Z,101079.09
2022-08-25T00:39:00.124Z,101079.97
2022-08-25T00:39:23.361Z,101077.22
2022-08-25T00:39:46.133Z,101069.91
2022-08-25T00:40:09.808Z,101079.66
2022-08-25T00:40:32.719Z,101077.06
2022-08-25T00:41:05.941Z,101077.22
2022-08-25T00:41:28.923Z,101085.97
2022-08-25T00:41:53.524Z,101077.91
2022-08-25T00:42:16.341Z,101087.97
2022-08-25T00:42:38.542Z,101084.25
2022-08-25T00:43:00.495Z,101072.22
2022-08-25T00:43:23.712Z,101077.38
2022-08-25T00:43:48.703Z,101081.41
2022-08-25T00:44:12.661Z,101087.16
2022-08-25T00:44:35.345Z,101077.97
2022-08-25T00:44:58.124Z,101080.16
2022-08-25T00:46:08.616Z,101081.16
2022-08-25T00:46:35.148Z,101084.59
2022-08-25T00:47:00.608Z,101082.00
2022-08-25T00:47:22.299Z,101078.28
2022-08-25T00:47:44.018Z,101082.88
2022-08-25T00:48:07.562Z,101073.81
2022-08-25T00:48:29.386Z,101083.75
2022-08-25T00:48:56.098Z,101078.41
2022-08-25T00:49:25.345Z,101086.06
2022-08-25T00:49:52.119Z,101083.47
2022-08-25T00:50:13.955Z,101073.59
2022-08-25T00:50:35.735Z,101079.91
2022-08-25T00:50:58.236Z,101080.66
2022-08-25T00:51:28.895Z,101081.50
2022-08-25T00:51:55.512Z,101079.78
2022-08-25T00:52:20.520Z,101077.19
2022-08-25T00:52:45.971Z,101076.06
2022-08-25T00:53:08.594Z,101083.19
2022-08-25T00:53:31.180Z,101072.28
2022-08-25T00:53:52.869Z,101084.78
2022-08-25T00:54:18.672Z,101077.47
2022-08-25T00:54:46.513Z,101082.91
2022-08-25T00:55:14.178Z,101079.47
2022-08-25T00:55:39.166Z,101082.19
2022-08-25T00:56:01.798Z,101077.91
2022-08-25T00:56:24.954Z,101081.78
2022-08-25T00:56:48.299Z,101080.09
2022-08-25T00:57:12.920Z,101078.91
2022-08-25T00:57:39.339Z,101076.31
2022-08-25T00:58:07.570Z,101074.47
2022-08-25T00:58:32.844Z,101080.47
2022-08-25T00:58:54.742Z,101079.78
2022-08-25T00:59:16.576Z,101084.22
2022-08-25T00:59:39.092Z,101076.91
2022-08-25T01:00:03.273Z,101081.19
2022-08-25T01:00:31.726Z,101082.91
2022-08-25T01:00:57.436Z,101085.66
2022-08-25T01:01:19.185Z,101077.59
2022-08-25T01:01:42.095Z,101078.78
2022-08-25T01:02:08.243Z,101081.19
2022-08-25T01:02:35.446Z,101086.66
2022-08-25T01:02:57.893Z,101080.47
2022-08-25T01:03:21.741Z,101079.47
2022-08-25T01:03:48.258Z,101083.94
2022-08-25T01:04:10.022Z,101082.06
2022-08-25T01:04:31.852Z,101077.47
2022-08-25T01:04:53.561Z,101082.91
2022-08-25T01:05:16.395Z,101087.38
2022-08-25T01:05:39.712Z,101087.38
2022-08-25T01:06:02.953Z,101080.06
2022-08-25T01:06:25.822Z,101079.88
2022-08-25T01:06:48.883Z,101071.16
2022-08-25T01:07:17.841Z,101085.50
2022-08-25T01:07:42.326Z,101085.78
2022-08-25T01:08:08.381Z,101078.47
2022-08-25T01:08:33.188Z,101082.06
2022-08-25T01:08:54.936Z,101079.31
2022-08-25T01:09:19.572Z,101079.19
2022-08-25T01:09:43.973Z,101081.91
2022-08-25T01:10:08.014Z,101079.19
2022-08-25T01:10:31.100Z,101079.31
2022-08-25T01:10:54.032Z,101075.59
2022-08-25T01:11:16.439Z,101082.06
2022-08-25T01:11:38.422Z,101075.00
2022-08-25T01:12:00.596Z,101076.75
2022-08-25T01:12:23.615Z,101078.59
2022-08-25T01:12:45.545Z,101077.91
2022-08-25T01:13:16.671Z,101074.31
2022-08-25T01:13:42.705Z,101078.38
2022-08-25T01:14:06.547Z,101071.50
2022-08-25T01:14:31.462Z,101076.50
2022-08-25T01:14:55.084Z,101076.31
2022-08-25T01:15:17.367Z,101079.91
2022-08-25T01:15:41.992Z,101073.78
2022-08-25T01:16:04.067Z,101073.03
2022-08-25T01:16:27.206Z,101071.19
2022-08-25T01:16:51.081Z,101068.59
2022-08-25T01:17:16.519Z,101075.91
2022-08-25T01:17:46.907Z,101074.91
2022-08-25T01:18:08.819Z,101075.63
2022-08-25T01:18:43.021Z,101072.91
2022-08-25T01:19:07.604Z,101078.50
2022-08-25T01:19:30.560Z,101083.97
2022-08-25T01:19:52.239Z,101080.38
2022-08-25T01:20:15.417Z,101077.78
2022-08-25T01:20:38.417Z,101077.78
2022-08-25T01:21:01.470Z,101079.69
2022-08-25T01:21:25.945Z,101079.97
2022-08-25T01:21:50.611Z,101073.50
2022-08-25T01:22:12.901Z,101086.13
2022-08-25T01:22:35.585Z,101073.50
2022-08-25T01:22:57.695Z,101076.38
2022-08-25T01:23:20.072Z,101079.25
2022-08-25T01:23:42.093Z,101078.22
2022-08-25T01:24:05.882Z,101074.06
2022-08-25T01:24:34.149Z,101079.81
2022-08-25T01:25:01.912Z,101076.69
2022-08-25T01:25:37.200Z,101075.25
2022-08-25T01:26:04.671Z,101079.00
2022-08-25T01:26:30.479Z,101080.97
2022-08-25T01:26:52.912Z,101077.25
2022-08-25T01:27:14.841Z,101076.25
2022-08-25T01:27:37.488Z,101086.16
2022-08-25T01:28:01.264Z,101079.84
2022-08-25T01:28:23.448Z,101074.53
2022-08-25T01:29:06.295Z,101083.56
2022-08-25T01:29:31.018Z,101075.69
2022-08-25T01:29:52.992Z,101077.56
2022-08-25T01:30:14.940Z,101073.13
2022-08-25T01:30:37.299Z,101075.69
2022-08-25T01:30:59.002Z,101075.84
2022-08-25T01:31:24.038Z,101081.28
2022-08-25T01:31:48.197Z,101073.38
2022-08-25T01:32:12.111Z,101083.88
2022-08-25T01:32:34.370Z,101074.84
2022-08-25T01:32:57.044Z,101083.56
2022-08-25T01:33:19.173Z,101081.72
2022-08-25T01:33:42.617Z,101078.13
2022-08-25T01:34:06.850Z,101080.84
2022-08-25T01:34:32.181Z,101080.84
2022-08-25T01:34:53.889Z,101086.16
2022-08-25T01:35:15.618Z,101078.00
2022-08-25T01:35:38.431Z,101082.56
2022-08-25T01:36:01.413Z,101077.13
2022-08-25T01:36:24.616Z,101081.56
2022-08-25T01:36:46.328Z,101087.16
2022-08-25T01:37:08.546Z,101074.84
2022-08-25T01:37:36.912Z,101081.72
2022-08-25T01:37:59.853Z,101075.53
2022-08-25T01:38:21.585Z,101082.72
2022-08-25T01:38:44.805Z,101084.44
2022-08-25T01:39:06.622Z,101085.44
2022-08-25T01:39:31.219Z,101084.72
2022-08-25T01:39:54.086Z,101083.03
2022-08-25T01:40:15.957Z,101078.56
2022-08-25T01:40:39.707Z,101075.84
2022-08-25T01:41:01.459Z,101076.53
2022-08-25T01:41:36.485Z,101078.44
2022-08-25T01:42:17.821Z,101076.53
2022-08-25T01:42:53.028Z,101073.81
2022-08-25T01:43:26.924Z,101082.16
2022-08-25T01:43:48.633Z,101072.97
2022-08-25T01:44:15.875Z,101078.25
2022-08-25T01:44:41.892Z,101078.44
2022-08-25T01:45:04.117Z,101079.25
2022-08-25T01:45:26.056Z,101082.00
2022-08-25T01:45:50.686Z,101085.56
2022-08-25T01:46:14.325Z,101078.44
2022-08-25T01:46:36.416Z,101085.56
2022-08-25T01:47:01.571Z,101080.13
2022-08-25T01:47:24.289Z,101082.72
2022-08-25T01:47:46.932Z,101080.97
2022-08-25T01:48:11.187Z,101075.53
2022-08-25T01:48:33.412Z,101080.28
2022-08-25T01:48:55.097Z,101080.84
2022-08-25T01:49:16.741Z,101082.72
2022-08-25T01:49:39.677Z,101082.56
2022-08-25T01:50:01.463Z,101084.44
2022-08-25T01:50:23.188Z,101076.25
2022-08-25T01:50:45.017Z,101082.72
2022-08-25T01:51:09.023Z,101079.84
2022-08-25T01:51:37.774Z,101074.66
2022-08-25T01:52:05.342Z,101082.72
2022-08-25T01:52:32.186Z,101071.81
2022-08-25T01:52:59.553Z,101073.66
2022-08-25T01:53:26.487Z,101079.44
2022-08-25T01:53:48.203Z,101077.56
2022-08-25T01:54:10.045Z,101072.97
2022-08-25T01:54:31.732Z,101077.84
2022-08-25T01:54:54.430Z,101079.88
2022-08-25T01:55:16.331Z,101073.56
2022-08-25T01:55:51.757Z,101073.69
2022-08-25T01:56:15.822Z,101075.72
2022-08-25T01:56:39.199Z,101079.28
2022-08-25T01:57:01.481Z,101079.44
2022-08-25T01:57:23.441Z,101074.13
2022-08-25T01:57:45.123Z,101065.09
2022-08-25T01:58:07.743Z,101080.44
2022-08-25T01:58:31.657Z,101070.41
2022-08-25T01:58:53.418Z,101068.56
2022-08-25T01:59:16.535Z,101075.88
2022-08-25T01:59:47.479Z,101069.53
2022-08-25T02:00:12.256Z,101069.84
2022-08-25T02:00:33.993Z,101075.88
2022-08-25T02:00:58.498Z,101079.28
2022-08-25T02:01:26.279Z,101077.72
2022-08-25T02:01:48.077Z,101074.00
2022-08-25T02:02:09.817Z,101074.28
2022-08-25T02:02:32.966Z,101076.88
2022-08-25T02:02:55.679Z,101078.59
2022-08-25T02:03:19.786Z,101079.59
2022-08-25T02:03:44.495Z,101081.31
2022-08-25T02:04:08.322Z,101072.59
2022-08-25T02:04:32.533Z,101077.00
2022-08-25T02:04:56.323Z,101077.00
2022-08-25T02:05:21.544Z,101076.13
2022-08-25T02:05:45.221Z,101075.44
2022-08-25T02:06:13.269Z,101083.47
2022-08-25T02:06:36.459Z,101080.75
2022-08-25T02:06:59.044Z,101077.16
2022-08-25T02:07:20.768Z,101077.16
2022-08-25T02:07:43.101Z,101079.91
2022-08-25T02:08:04.928Z,101081.75
2022-08-25T02:08:27.931Z,101082.63
2022-08-25T02:08:51.808Z,101083.47
2022-08-25T02:09:15.339Z,101084.31
2022-08-25T02:09:39.182Z,101080.03
2022-08-25T02:10:03.279Z,101077.31
2022-08-25T02:10:25.293Z,101084.47
2022-08-25T02:10:47.781Z,101088.22
2022-08-25T02:11:12.025Z,101086.34
2022-08-25T02:11:35.215Z,101080.91
2022-08-25T02:11:57.158Z,101081.91
2022-08-25T02:12:18.843Z,101085.78
2022-08-25T02:12:40.934Z,101076.59
2022-08-25T02:13:02.636Z,101078.63
2022-08-25T02:13:26.807Z,101085.78
2022-08-25T02:13:52.973Z,101079.31
2022-08-25T02:14:16.133Z,101080.16
2022-08-25T02:14:38.847Z,101082.03
2022-08-25T02:15:01.696Z,101083.91
2022-08-25T02:15:23.492Z,101089.50
2022-08-25T02:15:48.257Z,101087.66
2022-08-25T02:16:15.843Z,101085.63
2022-08-25T02:16:39.810Z,101086.47
2022-08-25T02:17:01.594Z,101092.81
2022-08-25T02:17:23.740Z,101090.06
2022-08-25T02:17:46.397Z,101086.34
2022-08-25T02:18:08.165Z,101082.75
2022-08-25T02:18:30.709Z,101084.63
2022-08-25T02:18:53.062Z,101080.03
2022-08-25T02:19:16.752Z,101082.75
2022-08-25T02:19:38.426Z,101082.75
2022-08-25T02:20:00.154Z,101088.66
2022-08-25T02:20:23.862Z,101082.47
2022-08-25T02:20:47.584Z,101093.25
2022-08-25T02:21:11.294Z,101090.50
2022-08-25T02:21:35.204Z,101085.63
2022-08-25T02:21:58.216Z,101085.63
2022-08-25T02:22:19.886Z,101083.06
2022-08-25T02:22:45.037Z,101085.47
2022-08-25T02:23:18.156Z,101082.63
2022-08-25T02:23:41.792Z,101084.47
2022-08-25T02:24:04.291Z,101084.47
2022-08-25T02:24:26.028Z,101089.94
2022-08-25T02:24:48.087Z,101091.81
2022-08-25T02:25:11.381Z,101093.53
2022-08-25T02:25:33.587Z,101085.34
2022-08-25T02:25:57.144Z,101087.34
2022-08-25T02:26:19.895Z,101084.63
2022-08-25T02:26:42.957Z,101091.94
2022-08-25T02:27:04.978Z,101088.50
2022-08-25T02:27:26.677Z,101090.06
2022-08-25T02:27:48.528Z,101092.81
2022-08-25T02:28:12.105Z,101090.22
2022-08-25T02:28:33.813Z,101083.63
2022-08-25T02:28:55.666Z,101087.22
2022-08-25T02:29:17.648Z,101091.66
2022-08-25T02:29:40.340Z,101089.09
2022-08-25T02:30:02.360Z,101092.09
2022-08-25T02:30:24.426Z,101092.94
2022-08-25T02:30:47.893Z,101084.94
2022-08-25T02:31:10.819Z,101088.81
2022-08-25T02:31:33.296Z,101089.78
2022-08-25T02:31:55.003Z,101088.94
2022-08-25T02:32:16.673Z,101088.09
2022-08-25T02:32:39.393Z,101093.38
2022-08-25T02:33:01.084Z,101086.22
2022-08-25T02:33:22.732Z,101089.78
2022-08-25T02:33:44.521Z,101091.38
2022-08-25T02:34:08.071Z,101086.06
2022-08-25T02:34:29.885Z,101093.38
2022-08-25T02:34:51.556Z,101085.22
2022-08-25T02:35:13.602Z,101090.66
2022-08-25T02:35:35.887Z,101091.53
2022-08-25T02:35:59.674Z,101084.34
2022-08-25T02:36:21.567Z,101092.69
2022-08-25T02:36:44.631Z,101088.09
2022-08-25T02:37:08.186Z,101081.63
2022-08-25T02:37:29.833Z,101090.84
2022-08-25T02:37:52.023Z,101087.94
2022-08-25T02:38:16.148Z,101086.47
2022-08-25T02:38:40.408Z,101087.94
2022-08-25T02:39:02.421Z,101081.63
2022-08-25T02:39:25.780Z,101085.38
2022-08-25T02:39:47.541Z,101088.94
2022-08-25T02:40:12.460Z,101085.38
2022-08-25T02:40:36.208Z,101088.25
2022-08-25T02:40:59.774Z,101086.22
2022-08-25T02:41:30.957Z,101092.38
2022-08-25T02:41:54.202Z,101086.06
2022-08-25T02:42:15.897Z,101085.06
2022-08-25T02:42:37.586Z,101090.53
2022-08-25T02:42:59.422Z,101086.22
2022-08-25T02:43:21.145Z,101085.94
2022-08-25T02:43:45.501Z,101085.22
2022-08-25T02:44:08.465Z,101079.94
2022-08-25T02:44:31.664Z,101083.34
2022-08-25T02:44:53.845Z,101078.75
2022-08-25T02:45:16.741Z,101083.47
2022-08-25T02:45:38.491Z,101080.75
2022-08-25T02:46:00.212Z,101075.31
2022-08-25T02:46:24.905Z,101077.91
2022-08-25T02:46:48.412Z,101075.47
2022-08-25T02:47:10.101Z,101083.66
2022-08-25T02:47:31.871Z,101078.44
2022-08-25T02:47:54.615Z,101082.78
2022-08-25T02:48:16.357Z,101078.31
2022-08-25T02:48:39.189Z,101083.88
2022-08-25T02:49:01.953Z,101081.47
2022-08-25T02:49:24.273Z,101079.59
2022-08-25T02:49:45.928Z,101086.78
2022-08-25T02:50:09.737Z,101078.31
2022-08-25T02:50:31.388Z,101082.59
2022-08-25T02:50:54.049Z,101080.72
2022-08-25T02:51:16.643Z,101079.03
2022-08-25T02:51:38.805Z,101080.91
2022-08-25T02:52:01.951Z,101077.31
2022-08-25T02:52:26.421Z,101075.16
2022-08-25T02:52:50.441Z,101073.00
2022-08-25T02:53:12.092Z,101065.81
2022-08-25T02:53:36.360Z,101077.75
2022-08-25T02:54:00.125Z,101072.44
2022-08-25T02:54:23.169Z,101073.28
2022-08-25T02:54:45.214Z,101076.16
2022-08-25T02:55:10.072Z,101068.84
2022-08-25T02:55:34.576Z,101067.13
2022-08-25T02:55:56.652Z,101069.72
2022-08-25T02:56:19.333Z,101074.16
2022-08-25T02:56:42.338Z,101068.72
2022-08-25T02:57:07.022Z,101068.53
2022-08-25T02:57:29.226Z,101065.81
2022-08-25T02:57:50.885Z,101067.56
2022-08-25T02:58:12.549Z,101073.00
2022-08-25T02:58:34.868Z,101072.13
2022-08-25T02:58:57.581Z,101064.13
2022-08-25T02:59:19.536Z,101060.38
2022-08-25T02:59:41.389Z,101061.09
2022-08-25T03:00:04.773Z,101061.09
2022-08-25T03:00:27.538Z,101060.22
2022-08-25T03:00:49.475Z,101065.81
2022-08-25T03:01:11.889Z,101062.97
2022-08-25T03:01:33.753Z,101065.56
2022-08-25T03:01:56.940Z,101064.56
2022-08-25T03:02:19.126Z,101074.16
2022-08-25T03:02:41.430Z,101064.13
2022-08-25T03:03:04.248Z,101062.53
2022-08-25T03:03:27.056Z,101063.53
2022-08-25T03:03:49.587Z,101063.41
2022-08-25T03:04:12.105Z,101064.13
2022-08-25T03:04:33.884Z,101063.09
2022-08-25T03:04:57.202Z,101060.22
2022-08-25T03:05:19.013Z,101049.47
2022-08-25T03:05:40.872Z,101059.69
2022-08-25T03:06:02.600Z,101060.38
2022-08-25T03:06:25.439Z,101059.81
2022-08-25T03:06:47.636Z,101056.09
2022-08-25T03:07:11.320Z,101062.41
2022-08-25T03:07:35.494Z,101056.09
2022-08-25T03:07:58.324Z,101063.25
2022-08-25T03:08:20.031Z,101061.53
2022-08-25T03:08:42.698Z,101055.94
2022-08-25T03:09:04.633Z,101052.38
2022-08-25T03:09:28.041Z,101058.69
2022-08-25T03:09:49.796Z,101045.19
2022-08-25T03:10:14.988Z,101053.50
2022-08-25T03:10:36.900Z,101058.09
2022-08-25T03:10:59.534Z,101057.09
2022-08-25T03:11:21.714Z,101061.53
2022-08-25T03:11:43.429Z,101048.78
2022-08-25T03:12:05.887Z,101056.22
2022-08-25T03:12:29.257Z,101057.25
2022-08-25T03:12:50.909Z,101056.53
2022-08-25T03:13:12.697Z,101048.66
2022-08-25T03:13:35.217Z,101053.38
2022-08-25T03:13:57.879Z,101055.09
2022-08-25T03:14:19.588Z,101056.81
2022-08-25T03:14:41.294Z,101048.22
2022-08-25T03:15:09.300Z,101053.38
2022-08-25T03:15:37.655Z,101046.19
2022-08-25T03:15:59.672Z,101050.34
2022-08-25T03:16:21.576Z,101055.78
2022-08-25T03:16:46.308Z,101051.22
2022-08-25T03:17:10.252Z,101055.78
2022-08-25T03:17:31.941Z,101053.06
2022-08-25T03:17:57.752Z,101046.06
2022-08-25T03:18:23.040Z,101049.78
2022-08-25T03:18:47.432Z,101047.06
2022-08-25T03:19:09.166Z,101050.66
2022-08-25T03:19:30.891Z,101046.31
2022-08-25T03:19:52.576Z,101050.09
2022-08-25T03:20:14.310Z,101047.50
2022-08-25T03:20:37.104Z,101049.91
2022-08-25T03:20:59.220Z,101046.19
2022-08-25T03:21:21.319Z,101051.50
2022-08-25T03:21:43.002Z,101042.47
2022-08-25T03:22:04.965Z,101047.78
2022-08-25T03:22:29.106Z,101046.19
2022-08-25T03:22:51.512Z,101051.50
2022-08-25T03:23:13.161Z,101049.91
2022-08-25T03:23:34.957Z,101054.50
2022-08-25T03:23:57.917Z,101054.81
2022-08-25T03:24:19.616Z,101042.34
2022-08-25T03:24:41.274Z,101049.66
2022-08-25T03:25:23.502Z,101046.94
2022-08-25T03:26:04.356Z,101046.75
2022-08-25T03:26:44.680Z,101046.75
2022-08-25T03:27:06.923Z,101050.22
2022-08-25T03:27:30.376Z,101045.06
2022-08-25T03:27:52.344Z,101041.91
2022-08-25T03:28:15.648Z,101052.22
2022-08-25T03:28:37.664Z,101051.34
2022-08-25T03:29:00.761Z,101047.06
2022-08-25T03:29:23.544Z,101051.50
2022-08-25T03:29:46.179Z,101043.47
2022-08-25T03:30:09.411Z,101039.19
2022-08-25T03:30:31.024Z,101042.59
2022-08-25T03:30:53.463Z,101047.06
2022-08-25T03:31:19.054Z,101045.34
2022-08-25T03:31:44.668Z,101051.94
2022-08-25T03:32:06.682Z,101041.91
2022-08-25T03:32:28.329Z,101049.22
2022-08-25T03:32:50.204Z,101037.47
2022-08-25T03:33:12.190Z,101048.34
2022-08-25T03:33:36.330Z,101039.19
2022-08-25T03:33:58.373Z,101039.19
2022-08-25T03:34:22.441Z,101039.03
2022-08-25T03:34:45.083Z,101044.63
2022-08-25T03:35:07.498Z,101040.19
2022-08-25T03:35:30.032Z,101041.06
2022-08-25T03:35:52.672Z,101044.63
2022-08-25T03:36:15.291Z,101036.59
2022-08-25T03:36:36.971Z,101032.59
2022-08-25T03:36:59.541Z,101036.59
2022-08-25T03:37:22.181Z,101042.19
2022-08-25T03:37:45.297Z,101044.22
2022-08-25T03:38:07.450Z,101035.75
2022-08-25T03:38:29.181Z,101042.03
2022-08-25T03:38:50.995Z,101036.59
2022-08-25T03:39:13.897Z,101041.91
2022-08-25T03:39:35.520Z,101040.88
2022-08-25T03:39:57.298Z,101045.34
2022-08-25T03:40:19.223Z,101043.47
2022-08-25T03:40:40.940Z,101036.47
2022-08-25T03:41:03.679Z,101039.19
2022-08-25T03:41:29.267Z,101033.88
2022-08-25T03:41:52.734Z,101037.72
2022-08-25T03:42:14.403Z,101036.88
2022-08-25T03:42:44.430Z,101039.59
2022-08-25T03:43:07.583Z,101037.25
2022-08-25T03:43:29.227Z,101036.56
2022-08-25T03:43:51.200Z,101039.41
2022-08-25T03:44:13.035Z,101038.28
2022-08-25T03:44:35.732Z,101032.13
2022-08-25T03:44:57.472Z,101037.44
2022-08-25T03:45:19.649Z,101043.72
2022-08-25T03:45:45.656Z,101037.44
2022-08-25T03:46:07.430Z,101036.56
2022-08-25T03:46:32.132Z,101039.88
2022-08-25T03:46:53.827Z,101038.03
2022-08-25T03:47:15.479Z,101035.41
2022-08-25T03:47:37.285Z,101042.72
2022-08-25T03:47:59.992Z,101034.72
2022-08-25T03:48:21.694Z,101040.16
2022-08-25T03:48:43.404Z,101040.84
2022-08-25T03:49:07.676Z,101031.97
2022-08-25T03:49:31.388Z,101035.69
2022-08-25T03:49:55.970Z,101033.09
2022-08-25T03:50:19.698Z,101036.56
2022-08-25T03:50:51.154Z,101034.09
2022-08-25T03:51:20.844Z,101034.28
2022-08-25T03:51:45.973Z,101031.53
2022-08-25T03:52:07.629Z,101038.00
2022-08-25T03:52:29.368Z,101037.00
2022-08-25T03:52:55.039Z,101031.69
2022-08-25T03:53:16.751Z,101039.72
2022-08-25T03:53:38.807Z,101044.00
2022-08-25T03:54:02.217Z,101032.97
2022-08-25T03:54:27.013Z,101031.97
2022-08-25T03:54:49.360Z,101038.13
2022-08-25T03:55:14.622Z,101027.22
2022-08-25T03:55:36.246Z,101034.72
2022-08-25T03:55:58.896Z,101033.28
2022-08-25T03:56:20.672Z,101029.25
2022-08-25T03:56:42.413Z,101028.53
2022-08-25T03:57:04.556Z,101037.84
2022-08-25T03:57:27.265Z,101028.81
2022-08-25T03:57:49.040Z,101030.81
2022-08-25T03:58:12.314Z,101029.09
2022-08-25T03:58:33.952Z,101033.41
2022-08-25T03:58:57.237Z,101028.81
2022-08-25T03:59:19.914Z,101029.09
2022-08-25T03:59:41.574Z,101027.53
2022-08-25T04:00:04.923Z,101022.22
2022-08-25T04:00:33.432Z,101015.78
2022-08-25T04:01:00.200Z,101031.81
2022-08-25T04:01:22.553Z,101020.78
2022-08-25T04:01:46.459Z,101020.91
2022-08-25T04:02:10.449Z,101015.47
2022-08-25T04:02:33.629Z,101016.34
2022-08-25T04:02:55.333Z,101018.19
2022-08-25T04:03:17.747Z,101018.19
2022-08-25T04:03:40.351Z,101019.94
2022-08-25T04:04:02.092Z,101019.06
2022-08-25T04:04:23.839Z,101018.19
2022-08-25T04:04:45.519Z,101007.19
2022-08-25T04:05:09.509Z,101009.91
2022-08-25T04:05:31.242Z,101010.75
2022-08-25T04:05:54.730Z,101005.44
2022-08-25T04:06:19.317Z,101011.75
2022-08-25T04:06:43.114Z,101009.03
2022-08-25T04:07:05.017Z,101005.31
2022-08-25T04:07:29.411Z,101011.88
2022-08-25T04:07:52.766Z,101009.03
2022-08-25T04:08:15.748Z,101006.19
2022-08-25T04:08:40.891Z,101009.91
2022-08-25T04:09:02.545Z,101004.75
2022-08-25T04:09:24.597Z,101009.34
2022-08-25T04:09:46.290Z,101004.59
2022-08-25T04:10:12.335Z,101002.03
2022-08-25T04:10:34.023Z,101008.34
2022-08-25T04:10:56.027Z,101005.44
2022-08-25T04:11:20.973Z,101010.75
2022-08-25T04:11:43.607Z,101009.03
2022-08-25T04:12:06.382Z,101001.28
2022-08-25T04:12:28.433Z,101004.88
2022-08-25T04:12:50.846Z,101007.72
2022-08-25T04:13:13.452Z,101007.59
2022-08-25T04:13:36.080Z,101003.28
2022-08-25T04:14:01.273Z,101013.91
2022-08-25T04:14:24.209Z,101011.88
2022-08-25T04:14:45.982Z,101011.19
2022-08-25T04:15:09.228Z,101013.03
2022-08-25T04:15:30.885Z,101005.88
2022-08-25T04:15:53.647Z,101005.88
2022-08-25T04:16:18.491Z,101006.88
2022-08-25T04:16:40.860Z,101009.75
2022-08-25T04:17:02.660Z,101008.91
2022-08-25T04:17:24.572Z,101015.22
2022-08-25T04:17:47.214Z,101011.44
2022-08-25T04:18:14.069Z,101009.59
2022-08-25T04:18:35.928Z,101013.19
2022-08-25T04:19:00.990Z,101017.06
2022-08-25T04:19:22.884Z,101015.47
2022-08-25T04:19:45.017Z,101012.19
2022-08-25T04:20:09.394Z,101016.06
2022-08-25T04:20:32.115Z,101018.91
2022-08-25T04:21:02.032Z,101017.19
2022-08-25T04:21:24.641Z,101016.44
2022-08-25T04:21:46.523Z,101016.19
2022-08-25T04:22:09.214Z,101016.44
2022-08-25T04:22:31.759Z,101012.72
2022-08-25T04:23:01.282Z,101019.03
2022-08-25T04:23:23.835Z,101017.59
2022-08-25T04:23:47.906Z,101017.47
2022-08-25T04:24:11.563Z,101017.31
2022-08-25T04:24:33.304Z,101012.03
2022-08-25T04:24:55.998Z,101012.72
2022-08-25T04:25:17.876Z,101011.59
2022-08-25T04:25:42.225Z,101017.91
2022-08-25T04:26:09.610Z,101017.06
2022-08-25T04:26:35.505Z,101005.56
2022-08-25T04:26:57.592Z,101020.63
2022-08-25T04:27:19.738Z,101007.16
2022-08-25T04:27:42.001Z,101010.63
2022-08-25T04:28:04.750Z,101014.47
2022-08-25T04:28:26.535Z,101014.75
2022-08-25T04:28:49.383Z,101012.28
2022-08-25T04:29:13.235Z,101014.88
2022-08-25T04:29:36.274Z,101011.59